Time;durP1;ratioP1;P1;durP2;ratioP2;P2;SDS_P1;SDS_P2;PMS_P1;PMS_P2;Temp;Humidity;BMP_temperature;BMP_pressure;BME280_temperature;BME280_humidity;BME280_pressure;Samples;Min_cycle;Max_cycle;Signal;HPM_P1;HPM_P2
2021/08/28 00:00:40;;;;;;;1.60;1.20;;;15.30;98.00;;;;;;5050107;28;20541;-73
2021/08/28 00:03:08;;;;;;;1.20;1.10;;;15.40;98.00;;;;;;5051531;28;20531;-72
2021/08/28 00:05:35;;;;;;;1.67;1.50;;;15.20;98.00;;;;;;5051388;28;20463;-72
2021/08/28 00:08:03;;;;;;;1.20;1.10;;;15.20;98.00;;;;;;5051299;28;20460;-71
2021/08/28 00:10:30;;;;;;;1.93;1.50;;;15.20;98.00;;;;;;5051226;28;20537;-72
2021/08/28 00:12:57;;;;;;;1.20;1.03;;;15.20;98.00;;;;;;5051272;28;20896;-72
2021/08/28 00:15:24;;;;;;;1.20;1.00;;;15.20;98.00;;;;;;5051389;28;20464;-72
2021/08/28 00:17:52;;;;;;;1.27;1.20;;;15.40;98.00;;;;;;5051247;28;20518;-71
2021/08/28 00:20:19;;;;;;;1.20;1.03;;;15.40;98.00;;;;;;5051423;28;20849;-71
2021/08/28 00:22:46;;;;;;;1.40;1.20;;;15.30;98.00;;;;;;5051376;28;20850;-71
2021/08/28 00:25:13;;;;;;;1.20;1.10;;;15.30;98.00;;;;;;5051047;28;20499;-72
2021/08/28 00:27:40;;;;;;;1.87;1.30;;;15.30;98.00;;;;;;5051241;28;20492;-72
2021/08/28 00:30:09;;;;;;;2.37;1.40;;;15.20;98.00;;;;;;5050914;28;21041;-71
2021/08/28 00:32:37;;;;;;;1.20;1.00;;;15.20;98.00;;;;;;5050675;28;20583;-72
2021/08/28 00:35:06;;;;;;;1.20;1.00;;;15.30;98.00;;;;;;5051094;28;20496;-72
2021/08/28 00:37:33;;;;;;;1.67;1.30;;;15.40;98.00;;;;;;5050775;28;20464;-71
2021/08/28 00:40:00;;;;;;;1.20;1.07;;;15.30;98.00;;;;;;5050943;28;20982;-72
2021/08/28 00:42:27;;;;;;;1.20;1.00;;;15.40;98.00;;;;;;5053085;28;21012;-71
2021/08/28 00:44:56;;;;;;;1.40;1.20;;;15.40;98.00;;;;;;5054510;28;20472;-72
2021/08/28 00:47:25;;;;;;;1.20;1.20;;;15.40;98.00;;;;;;5054227;28;20507;-72
2021/08/28 00:49:52;;;;;;;1.20;1.10;;;15.30;98.00;;;;;;5054414;28;20504;-73
2021/08/28 00:52:21;;;;;;;1.30;1.20;;;15.20;98.00;;;;;;5054143;28;20516;-71
2021/08/28 00:54:49;;;;;;;1.40;1.30;;;15.40;98.00;;;;;;5053955;28;20461;-72
2021/08/28 00:57:17;;;;;;;1.20;1.10;;;15.30;98.00;;;;;;5053907;28;20456;-72
2021/08/28 00:59:44;;;;;;;1.67;1.30;;;15.30;98.00;;;;;;5053882;28;20456;-72
2021/08/28 01:02:12;;;;;;;1.20;1.10;;;15.30;98.00;;;;;;5054221;28;20489;-71
2021/08/28 01:04:46;;;;;;;1.20;1.20;;;15.20;98.00;;;;;;5054146;28;20963;-72
2021/08/28 01:07:22;;;;;;;1.20;1.10;;;15.10;98.00;;;;;;5054063;28;20462;-72
2021/08/28 01:09:56;;;;;;;1.20;1.00;;;15.20;98.00;;;;;;5054302;28;20489;-72
2021/08/28 01:12:27;;;;;;;1.20;1.10;;;15.20;98.00;;;;;;5053823;28;20524;-72
2021/08/28 01:14:58;;;;;;;1.90;1.27;;;15.20;98.00;;;;;;5052766;28;20502;-72
2021/08/28 01:17:27;;;;;;;1.20;1.10;;;15.40;98.00;;;;;;5054056;28;20486;-72
2021/08/28 01:20:05;;;;;;;1.63;1.20;;;15.50;98.00;;;;;;5054009;28;20475;-72
2021/08/28 01:22:32;;;;;;;1.80;1.40;;;15.40;98.00;;;;;;5053774;28;20519;-72
2021/08/28 01:25:02;;;;;;;1.40;1.20;;;15.50;98.00;;;;;;5053931;28;20942;-72
2021/08/28 01:27:35;;;;;;;1.67;1.20;;;15.50;98.00;;;;;;5053750;28;20496;-72
2021/08/28 01:30:05;;;;;;;2.00;1.40;;;15.30;98.00;;;;;;5053755;28;20946;-71
2021/08/28 01:32:32;;;;;;;1.20;1.00;;;15.20;98.00;;;;;;5053388;28;20525;-71
2021/08/28 01:35:00;;;;;;;1.20;1.20;;;15.10;98.00;;;;;;5053654;28;20997;-72
2021/08/28 01:37:28;;;;;;;1.87;1.20;;;15.00;98.00;;;;;;5053660;28;20856;-72
2021/08/28 01:39:56;;;;;;;1.20;1.10;;;14.90;98.00;;;;;;5053551;28;20907;-72
2021/08/28 01:42:25;;;;;;;1.40;1.20;;;14.90;98.00;;;;;;5053528;28;20456;-72
2021/08/28 01:44:54;;;;;;;2.07;1.70;;;14.80;98.00;;;;;;5053788;28;20521;-72
2021/08/28 01:47:22;;;;;;;2.03;1.10;;;14.70;98.00;;;;;;5053249;28;20488;-72
2021/08/28 01:49:50;;;;;;;1.20;1.07;;;14.80;98.00;;;;;;5052463;28;20946;-71
2021/08/28 01:52:18;;;;;;;2.63;1.30;;;14.70;98.00;;;;;;5052929;28;20519;-72
2021/08/28 01:54:45;;;;;;;1.40;1.20;;;14.70;98.00;;;;;;5053321;28;20453;-71
2021/08/28 01:57:12;;;;;;;1.20;1.10;;;14.70;98.00;;;;;;5053254;28;21012;-73
2021/08/28 01:59:40;;;;;;;1.50;1.20;;;14.80;98.00;;;;;;5053013;28;20552;-71
2021/08/28 02:02:07;;;;;;;1.70;1.30;;;14.80;98.00;;;;;;5052832;28;20465;-72
2021/08/28 02:04:38;;;;;;;2.60;1.50;;;14.90;98.00;;;;;;5053088;28;20515;-72
2021/08/28 02:07:14;;;;;;;1.70;1.17;;;14.80;98.00;;;;;;5051834;28;20495;-72
2021/08/28 02:09:48;;;;;;;1.83;1.40;;;14.90;98.00;;;;;;5052814;28;21014;-71
2021/08/28 02:12:22;;;;;;;1.20;1.00;;;14.80;98.00;;;;;;5052576;28;20990;-72
2021/08/28 02:14:57;;;;;;;3.23;1.40;;;14.90;98.00;;;;;;5052904;28;21221;-71
2021/08/28 02:17:28;;;;;;;2.53;1.20;;;14.80;98.00;;;;;;5052659;28;20518;-72
2021/08/28 02:19:59;;;;;;;1.30;1.10;;;14.90;98.00;;;;;;5052512;28;20591;-72
2021/08/28 02:22:29;;;;;;;1.20;1.00;;;14.80;98.00;;;;;;5052661;28;20458;-71
2021/08/28 02:25:03;;;;;;;1.23;1.07;;;14.80;98.00;;;;;;5052725;28;20503;-72
2021/08/28 02:27:36;;;;;;;3.50;1.43;;;14.80;98.00;;;;;;5052451;28;20511;-71
2021/08/28 02:30:09;;;;;;;1.20;1.10;;;14.70;98.00;;;;;;5052651;28;20483;-71
2021/08/28 02:32:38;;;;;;;1.20;1.00;;;14.60;98.00;;;;;;5052234;28;20583;-71
2021/08/28 02:35:11;;;;;;;1.30;1.20;;;14.80;98.00;;;;;;5052414;28;20949;-72
2021/08/28 02:37:40;;;;;;;1.43;1.23;;;14.70;98.00;;;;;;5052411;28;20539;-72
2021/08/28 02:40:10;;;;;;;1.30;1.00;;;14.70;98.00;;;;;;5052329;28;20521;-72
2021/08/28 02:42:39;;;;;;;1.33;1.17;;;14.60;98.00;;;;;;5052232;28;20964;-72
2021/08/28 02:45:08;;;;;;;2.07;1.20;;;14.60;98.00;;;;;;5051137;28;20490;-72
2021/08/28 02:47:37;;;;;;;1.50;1.23;;;14.50;98.00;;;;;;5052015;28;20555;-71
2021/08/28 02:50:06;;;;;;;1.20;1.00;;;14.50;98.00;;;;;;5052194;28;20469;-72
2021/08/28 02:52:36;;;;;;;1.20;1.00;;;14.40;98.00;;;;;;5050802;28;20492;-73
2021/08/28 02:55:08;;;;;;;1.40;1.10;;;14.30;98.00;;;;;;5052141;28;20637;-72
2021/08/28 02:57:37;;;;;;;1.70;1.50;;;14.40;98.00;;;;;;5052164;28;20450;-72
2021/08/28 03:00:05;;;;;;;1.60;1.07;;;14.40;98.00;;;;;;5051668;28;20483;-72
2021/08/28 03:02:33;;;;;;;1.60;1.10;;;14.50;98.00;;;;;;5051536;28;20509;-72
2021/08/28 03:05:01;;;;;;;3.43;1.70;;;14.70;98.00;;;;;;5051516;28;20751;-72
2021/08/28 03:07:29;;;;;;;1.20;1.10;;;14.70;98.00;;;;;;5052195;28;20499;-72
2021/08/28 03:09:57;;;;;;;1.20;1.20;;;14.60;98.00;;;;;;5051752;28;20525;-71
2021/08/28 03:12:25;;;;;;;1.20;1.10;;;14.50;98.00;;;;;;5051916;28;21022;-72
2021/08/28 03:14:52;;;;;;;3.97;1.40;;;14.40;98.00;;;;;;5051621;28;20579;-71
2021/08/28 03:17:23;;;;;;;1.20;1.03;;;14.50;98.00;;;;;;5051815;28;20512;-71
2021/08/28 03:19:51;;;;;;;1.20;1.10;;;14.70;98.00;;;;;;5051503;28;20504;-72
2021/08/28 03:22:21;;;;;;;1.40;1.23;;;14.80;98.00;;;;;;5051596;28;20888;-71
2021/08/28 03:24:52;;;;;;;1.20;1.10;;;14.70;98.00;;;;;;5051452;28;20491;-72
2021/08/28 03:27:21;;;;;;;1.20;1.10;;;14.60;98.00;;;;;;5051612;28;20500;-72
2021/08/28 03:29:49;;;;;;;1.93;1.40;;;14.60;98.00;;;;;;5051696;28;20864;-72
2021/08/28 03:32:17;;;;;;;1.50;1.17;;;14.60;98.00;;;;;;5051181;28;21045;-72
2021/08/28 03:34:44;;;;;;;1.20;1.17;;;14.70;98.00;;;;;;5051174;28;20449;-72
2021/08/28 03:37:14;;;;;;;1.30;1.20;;;14.70;98.00;;;;;;5051467;28;20456;-72
2021/08/28 03:39:42;;;;;;;1.73;1.10;;;14.50;98.00;;;;;;5051255;28;20809;-72
2021/08/28 03:42:11;;;;;;;1.53;1.47;;;14.50;98.00;;;;;;5051470;28;20586;-72
2021/08/28 03:44:39;;;;;;;1.47;1.20;;;14.50;98.00;;;;;;5051500;28;20500;-72
2021/08/28 03:47:06;;;;;;;1.70;1.30;;;14.50;98.00;;;;;;5051454;28;20478;-72
2021/08/28 03:49:34;;;;;;;1.63;1.33;;;14.50;98.00;;;;;;5051496;28;20492;-72
2021/08/28 03:52:01;;;;;;;2.47;1.10;;;14.40;98.00;;;;;;5051309;28;20534;-72
2021/08/28 03:54:28;;;;;;;1.53;1.43;;;14.50;98.00;;;;;;5051382;28;20930;-72
2021/08/28 03:56:55;;;;;;;1.40;1.20;;;14.40;98.00;;;;;;5051293;28;21074;-72
2021/08/28 04:02:05;;;;;;;2.27;1.20;;;14.50;98.00;;;;;;5051163;28;20462;-72
2021/08/28 04:04:32;;;;;;;1.20;1.20;;;14.40;98.00;;;;;;5051233;28;21120;-72
2021/08/28 04:06:58;;;;;;;1.40;1.23;;;14.30;98.00;;;;;;5051356;28;21001;-72
2021/08/28 04:09:25;;;;;;;2.20;1.23;;;14.30;98.00;;;;;;5051327;28;20485;-71
2021/08/28 04:11:52;;;;;;;1.20;1.10;;;14.20;98.00;;;;;;5051236;28;20938;-72
2021/08/28 04:14:19;;;;;;;2.70;1.23;;;14.20;98.00;;;;;;5051243;28;20498;-71
2021/08/28 04:16:48;;;;;;;1.40;1.17;;;14.20;98.00;;;;;;5052707;28;20550;-72
2021/08/28 04:19:15;;;;;;;1.50;1.33;;;14.30;98.00;;;;;;5055351;28;20510;-72
2021/08/28 04:21:42;;;;;;;1.47;1.30;;;14.30;98.00;;;;;;5053809;28;20543;-72
2021/08/28 04:24:09;;;;;;;1.70;1.20;;;14.40;98.00;;;;;;5055055;28;20542;-73
2021/08/28 04:26:42;;;;;;;1.27;1.27;;;14.30;98.00;;;;;;5055113;28;20500;-72
2021/08/28 04:29:09;;;;;;;1.60;1.10;;;14.30;98.00;;;;;;5054519;28;20468;-72
2021/08/28 04:31:35;;;;;;;2.33;1.57;;;14.30;98.00;;;;;;5054669;28;20988;-72
2021/08/28 04:34:04;;;;;;;2.03;1.63;;;14.30;98.00;;;;;;5054194;28;20534;-73
2021/08/28 04:36:31;;;;;;;1.40;1.10;;;14.40;98.00;;;;;;5053986;28;20880;-72
2021/08/28 04:39:00;;;;;;;1.20;1.10;;;14.50;98.00;;;;;;5052736;28;20461;-72
2021/08/28 04:41:27;;;;;;;1.20;1.00;;;14.60;98.00;;;;;;5054274;28;20464;-72
2021/08/28 04:43:54;;;;;;;1.57;1.30;;;14.70;98.00;;;;;;5054367;28;20865;-71
2021/08/28 04:46:21;;;;;;;1.37;1.20;;;14.70;98.00;;;;;;5054384;28;21205;-72
2021/08/28 04:48:48;;;;;;;2.50;1.53;;;14.70;98.00;;;;;;5054454;28;20487;-72
2021/08/28 04:51:16;;;;;;;1.40;1.37;;;14.60;98.00;;;;;;5052966;28;20902;-72
2021/08/28 04:53:44;;;;;;;1.70;1.20;;;14.80;98.00;;;;;;5053993;28;20483;-72
2021/08/28 04:56:12;;;;;;;1.50;1.30;;;14.80;98.00;;;;;;5054437;28;20453;-73
2021/08/28 04:58:39;;;;;;;1.40;1.20;;;14.80;98.00;;;;;;5054142;28;20491;-72
2021/08/28 05:01:06;;;;;;;1.73;1.10;;;14.70;98.00;;;;;;5052908;28;20798;-72
2021/08/28 05:03:33;;;;;;;1.20;1.10;;;14.70;98.00;;;;;;5053922;28;20599;-72
2021/08/28 05:06:00;;;;;;;1.30;1.03;;;14.70;98.00;;;;;;5053586;28;20496;-72
2021/08/28 05:08:28;;;;;;;1.30;1.10;;;14.60;98.00;;;;;;5053567;28;20491;-71
2021/08/28 05:10:58;;;;;;;2.40;1.43;;;14.60;98.00;;;;;;5054124;28;20492;-72
2021/08/28 05:13:25;;;;;;;1.30;1.23;;;14.70;98.00;;;;;;5053968;28;20490;-72
2021/08/28 05:15:55;;;;;;;1.43;1.20;;;14.80;98.00;;;;;;5053977;28;20508;-72
2021/08/28 05:18:22;;;;;;;1.20;1.20;;;14.80;98.00;;;;;;5053939;28;20460;-71
2021/08/28 05:20:50;;;;;;;1.20;1.10;;;14.80;98.00;;;;;;5053926;28;20493;-71
2021/08/28 05:23:17;;;;;;;1.20;1.10;;;14.80;98.00;;;;;;5053675;28;20492;-72
2021/08/28 05:25:45;;;;;;;1.40;1.40;;;14.80;98.00;;;;;;5053895;28;20495;-72
2021/08/28 05:28:12;;;;;;;2.67;1.67;;;14.80;98.00;;;;;;5053425;28;20564;-72
2021/08/28 05:30:39;;;;;;;1.20;1.20;;;14.80;98.00;;;;;;5053873;28;20481;-72
2021/08/28 05:33:06;;;;;;;1.40;1.10;;;14.90;98.00;;;;;;5053585;28;20585;-72
2021/08/28 05:35:33;;;;;;;2.70;1.73;;;14.90;98.00;;;;;;5053805;28;20492;-72
2021/08/28 05:38:00;;;;;;;1.30;1.10;;;14.90;98.00;;;;;;5053637;28;20833;-72
2021/08/28 05:40:27;;;;;;;1.60;1.57;;;14.90;98.00;;;;;;5053961;28;20492;-72
2021/08/28 05:42:56;;;;;;;1.47;1.40;;;14.80;98.00;;;;;;5053699;28;21170;-73
2021/08/28 05:45:23;;;;;;;1.50;1.20;;;15.00;98.00;;;;;;5053729;28;20481;-72
2021/08/28 05:47:51;;;;;;;1.20;1.17;;;14.90;98.00;;;;;;5053480;28;20488;-72
2021/08/28 05:50:18;;;;;;;1.50;1.20;;;14.80;98.00;;;;;;5053298;28;20494;-71
2021/08/28 05:52:45;;;;;;;1.63;1.27;;;14.80;98.00;;;;;;5053046;28;20541;-72
2021/08/28 05:55:14;;;;;;;3.80;1.50;;;14.70;98.00;;;;;;5053543;28;20815;-72
2021/08/28 05:57:41;;;;;;;1.83;1.20;;;14.80;98.00;;;;;;5052983;28;20837;-72
2021/08/28 06:00:10;;;;;;;1.53;1.40;;;14.70;98.00;;;;;;5053217;28;20518;-72
2021/08/28 06:02:37;;;;;;;1.20;1.20;;;14.80;98.00;;;;;;5053024;28;20479;-73
2021/08/28 06:05:07;;;;;;;1.70;1.30;;;14.80;98.00;;;;;;5052997;28;20481;-72
2021/08/28 06:07:34;;;;;;;1.77;1.30;;;14.90;98.00;;;;;;5052885;28;20514;-71
2021/08/28 06:10:01;;;;;;;2.90;1.40;;;14.80;98.00;;;;;;5052851;28;20573;-72
2021/08/28 06:12:28;;;;;;;1.93;1.30;;;14.80;98.00;;;;;;5052441;28;20465;-73
2021/08/28 06:14:55;;;;;;;1.20;1.00;;;14.80;98.00;;;;;;5052748;28;20489;-72
2021/08/28 06:17:23;;;;;;;1.40;1.30;;;14.80;98.00;;;;;;5052802;28;20953;-72
2021/08/28 06:19:50;;;;;;;1.20;1.00;;;14.80;98.00;;;;;;5052849;28;20463;-73
2021/08/28 06:22:17;;;;;;;1.17;1.10;;;14.90;98.00;;;;;;5052508;28;20978;-72
2021/08/28 06:24:44;;;;;;;1.30;1.20;;;15.00;98.00;;;;;;5052593;28;20961;-71
2021/08/28 06:27:11;;;;;;;1.40;1.10;;;14.90;98.00;;;;;;5052645;28;20465;-72
2021/08/28 06:29:38;;;;;;;4.07;1.77;;;14.80;98.00;;;;;;5052551;28;20482;-72
2021/08/28 06:32:06;;;;;;;1.30;1.23;;;14.70;98.00;;;;;;5052333;28;20791;-71
2021/08/28 06:34:34;;;;;;;1.90;1.47;;;14.70;98.00;;;;;;5052478;28;20581;-73
2021/08/28 06:37:01;;;;;;;4.20;1.30;;;14.70;98.00;;;;;;5052318;28;20456;-73
2021/08/28 06:39:28;;;;;;;1.83;1.20;;;14.80;98.00;;;;;;5051833;28;20955;-73
2021/08/28 06:41:55;;;;;;;1.50;1.10;;;14.80;98.00;;;;;;5052307;28;20862;-73
2021/08/28 06:44:23;;;;;;;1.50;1.40;;;14.80;98.00;;;;;;5052335;28;20487;-73
2021/08/28 06:46:53;;;;;;;1.30;1.23;;;14.80;98.00;;;;;;5052385;28;20472;-73
2021/08/28 06:49:20;;;;;;;1.20;1.10;;;14.90;98.00;;;;;;5052341;28;20468;-73
2021/08/28 06:51:49;;;;;;;1.30;1.30;;;15.00;98.00;;;;;;5052248;28;20456;-73
2021/08/28 06:54:15;;;;;;;1.40;1.10;;;15.10;98.00;;;;;;5052295;28;20525;-74
2021/08/28 06:56:45;;;;;;;2.33;1.53;;;15.20;98.00;;;;;;5052175;28;20501;-74
2021/08/28 06:59:12;;;;;;;1.80;1.47;;;15.30;98.00;;;;;;5052288;28;20464;-73
2021/08/28 07:01:39;;;;;;;1.87;1.33;;;15.40;98.00;;;;;;5052242;28;20562;-73
2021/08/28 07:04:06;;;;;;;1.93;1.40;;;15.30;98.00;;;;;;5052029;28;20519;-73
2021/08/28 07:06:33;;;;;;;1.30;1.10;;;15.30;98.00;;;;;;5051003;28;20833;-73
2021/08/28 07:09:03;;;;;;;1.83;1.30;;;15.50;98.00;;;;;;5052138;28;20540;-74
2021/08/28 07:11:30;;;;;;;3.10;1.30;;;15.70;98.00;;;;;;5052186;28;20467;-73
2021/08/28 07:13:59;;;;;;;1.60;1.33;;;15.60;98.00;;;;;;5051706;28;20516;-73
2021/08/28 07:16:26;;;;;;;2.47;1.60;;;15.70;98.00;;;;;;5052018;28;20879;-73
2021/08/28 07:18:53;;;;;;;1.23;1.20;;;15.70;98.00;;;;;;5051591;28;20545;-73
2021/08/28 07:21:20;;;;;;;1.20;1.03;;;15.70;98.00;;;;;;5051776;28;20562;-73
2021/08/28 07:23:48;;;;;;;1.20;1.10;;;15.80;98.00;;;;;;5050451;28;20465;-72
2021/08/28 07:26:17;;;;;;;1.30;1.20;;;15.70;98.00;;;;;;5051669;28;20460;-73
2021/08/28 07:28:45;;;;;;;1.40;1.20;;;15.60;98.00;;;;;;5051425;28;20460;-73
2021/08/28 07:31:12;;;;;;;1.20;1.10;;;15.80;98.00;;;;;;5051486;28;20546;-73
2021/08/28 07:33:40;;;;;;;2.03;1.63;;;15.90;98.00;;;;;;5051393;28;20876;-74
2021/08/28 07:36:07;;;;;;;1.50;1.40;;;15.90;98.00;;;;;;5051487;28;20495;-74
2021/08/28 07:38:34;;;;;;;1.27;1.20;;;16.10;98.00;;;;;;5051464;28;20468;-74
2021/08/28 07:41:02;;;;;;;1.40;1.20;;;16.20;98.00;;;;;;5051495;28;20460;-75
2021/08/28 07:43:31;;;;;;;1.30;1.10;;;16.10;98.00;;;;;;5051376;28;20834;-74
2021/08/28 07:46:00;;;;;;;1.40;1.20;;;16.10;98.00;;;;;;5051429;28;20511;-74
2021/08/28 07:48:27;;;;;;;1.33;1.20;;;16.20;98.00;;;;;;5051341;28;20453;-74
2021/08/28 07:50:54;;;;;;;2.10;1.30;;;16.20;98.00;;;;;;5053084;28;20519;-74
2021/08/28 07:53:21;;;;;;;1.87;1.20;;;16.30;98.00;;;;;;5055331;28;20857;-74
2021/08/28 07:55:48;;;;;;;1.20;1.00;;;16.30;98.00;;;;;;5054189;28;20464;-74
2021/08/28 07:58:18;;;;;;;2.37;1.63;;;16.30;98.00;;;;;;5055168;28;20528;-73
2021/08/28 08:00:46;;;;;;;1.20;1.00;;;16.20;98.00;;;;;;5055611;28;20545;-75
2021/08/28 08:03:14;;;;;;;1.67;1.37;;;16.20;98.00;;;;;;5055389;28;20489;-72
2021/08/28 08:05:42;;;;;;;1.83;1.30;;;16.30;98.00;;;;;;5054023;28;20794;-73
2021/08/28 08:08:10;;;;;;;1.20;1.20;;;16.30;98.00;;;;;;5055172;28;20460;-74
2021/08/28 08:10:37;;;;;;;1.40;1.33;;;16.50;98.00;;;;;;5055131;28;20508;-73
2021/08/28 08:13:04;;;;;;;1.60;1.33;;;16.40;98.00;;;;;;5055030;28;20504;-73
2021/08/28 08:15:32;;;;;;;1.20;1.07;;;16.30;98.00;;;;;;5055242;28;20545;-74
2021/08/28 08:18:00;;;;;;;1.40;1.20;;;16.20;98.00;;;;;;5055045;28;20495;-74
2021/08/28 08:20:29;;;;;;;1.20;1.17;;;16.20;98.00;;;;;;5054046;28;20500;-73
2021/08/28 08:22:56;;;;;;;1.87;1.10;;;16.20;98.00;;;;;;5050372;28;20484;-71
2021/08/28 08:25:23;;;;;;;1.83;1.40;;;16.30;98.00;;;;;;5032755;28;20494;-71
2021/08/28 08:27:50;;;;;;;1.30;1.17;;;16.50;98.00;;;;;;5044857;28;20549;-71
2021/08/28 08:30:17;;;;;;;1.40;1.30;;;16.60;98.00;;;;;;5050669;28;20487;-72
2021/08/28 08:32:44;;;;;;;1.30;1.10;;;16.80;98.00;;;;;;5041174;28;20965;-71
2021/08/28 08:35:12;;;;;;;1.33;1.30;;;16.90;98.00;;;;;;5043096;28;20525;-73
2021/08/28 08:37:39;;;;;;;1.43;1.40;;;17.00;98.00;;;;;;5042515;28;20952;-73
2021/08/28 08:40:07;;;;;;;1.20;1.10;;;16.90;98.00;;;;;;5047416;28;20537;-73
2021/08/28 08:42:36;;;;;;;1.40;1.27;;;16.80;98.00;;;;;;5049658;28;20496;-73
2021/08/28 08:45:04;;;;;;;1.37;1.20;;;16.60;98.00;;;;;;5054153;28;20514;-74
2021/08/28 08:47:33;;;;;;;1.30;1.20;;;16.30;98.00;;;;;;5054280;28;20521;-73
2021/08/28 08:50:01;;;;;;;1.30;1.10;;;16.30;98.00;;;;;;5054159;28;20544;-73
2021/08/28 08:52:32;;;;;;;1.30;1.20;;;16.30;98.00;;;;;;5053113;28;20864;-73
2021/08/28 08:55:00;;;;;;;1.20;1.20;;;16.30;98.00;;;;;;5054374;28;21154;-74
2021/08/28 08:57:27;;;;;;;1.30;1.13;;;16.30;98.00;;;;;;5054288;28;20486;-73
2021/08/28 08:59:57;;;;;;;1.30;1.20;;;16.50;98.00;;;;;;5053144;28;20901;-74
2021/08/28 09:02:24;;;;;;;1.20;1.10;;;16.60;98.00;;;;;;5052734;28;20500;-74
2021/08/28 09:04:51;;;;;;;1.50;1.10;;;16.70;98.00;;;;;;5054354;28;20819;-74
2021/08/28 09:07:18;;;;;;;1.40;1.27;;;16.80;98.00;;;;;;5054058;28;20503;-73
2021/08/28 09:09:46;;;;;;;1.20;1.10;;;16.80;98.00;;;;;;5054145;28;20947;-73
2021/08/28 09:12:14;;;;;;;1.30;1.30;;;16.70;98.00;;;;;;5054197;28;20457;-74
2021/08/28 09:14:41;;;;;;;1.40;1.20;;;16.60;98.00;;;;;;5053774;28;20587;-73
2021/08/28 09:17:17;;;;;;;1.30;1.00;;;16.70;98.00;;;;;;5054233;28;20868;-73
2021/08/28 09:19:45;;;;;;;1.40;1.00;;;16.70;98.00;;;;;;5054128;28;20469;-74
2021/08/28 09:22:27;;;;;;;1.20;1.10;;;16.80;98.00;;;;;;5053870;28;20492;-74
2021/08/28 09:24:59;;;;;;;1.20;1.20;;;16.90;98.00;;;;;;5053925;28;20511;-73
2021/08/28 09:27:33;;;;;;;1.30;1.20;;;17.00;98.00;;;;;;5053945;28;21021;-73
2021/08/28 09:30:01;;;;;;;1.27;1.20;;;17.10;98.00;;;;;;5053804;28;20539;-73
2021/08/28 09:32:32;;;;;;;1.20;1.10;;;17.30;98.00;;;;;;5052329;28;20465;-73
2021/08/28 09:35:09;;;;;;;1.20;1.00;;;17.30;98.00;;;;;;5053659;28;20477;-74
2021/08/28 09:37:39;;;;;;;1.40;1.40;;;17.30;98.00;;;;;;5053806;28;20469;-74
2021/08/28 09:40:08;;;;;;;1.30;1.10;;;17.30;98.00;;;;;;5053459;28;20544;-74
2021/08/28 09:42:38;;;;;;;1.33;1.27;;;17.30;98.00;;;;;;5053253;28;20500;-73
2021/08/28 09:45:10;;;;;;;1.40;1.20;;;17.20;98.00;;;;;;5052468;28;20549;-73
2021/08/28 09:47:41;;;;;;;1.43;1.37;;;17.20;98.00;;;;;;5053386;28;20552;-72
2021/08/28 09:50:09;;;;;;;1.87;1.10;;;17.20;98.00;;;;;;5044161;28;20496;-72
2021/08/28 09:52:36;;;;;;;1.20;1.13;;;17.10;98.00;;;;;;5034113;28;20971;-73
2021/08/28 09:55:08;;;;;;;1.20;1.10;;;17.10;98.00;;;;;;5047088;28;20562;-73
2021/08/28 09:57:40;;;;;;;1.43;1.30;;;17.10;98.00;;;;;;5038330;28;20893;-73
2021/08/28 10:00:08;;;;;;;1.20;1.00;;;17.10;98.00;;;;;;5041505;28;21028;-74
2021/08/28 10:02:35;;;;;;;1.20;1.00;;;17.10;98.00;;;;;;5038923;28;20465;-72
2021/08/28 10:05:03;;;;;;;1.50;1.23;;;17.10;98.00;;;;;;5047571;28;20548;-73
2021/08/28 10:07:31;;;;;;;1.20;1.00;;;16.90;98.00;;;;;;5032285;28;20944;-72
2021/08/28 10:10:00;;;;;;;1.30;1.10;;;16.90;98.00;;;;;;5038282;28;20494;-72
2021/08/28 10:12:30;;;;;;;1.20;1.07;;;16.90;98.00;;;;;;5040327;28;20458;-73
2021/08/28 10:14:57;;;;;;;1.60;1.20;;;16.90;98.00;;;;;;5031501;28;20526;-73
2021/08/28 10:17:26;;;;;;;1.60;1.30;;;16.90;98.00;;;;;;5046870;28;20519;-74
2021/08/28 10:19:58;;;;;;;1.20;1.00;;;16.90;98.00;;;;;;5047413;28;21374;-73
2021/08/28 10:22:28;;;;;;;1.30;1.20;;;16.90;98.00;;;;;;5047454;28;20473;-73
2021/08/28 10:24:57;;;;;;;1.40;1.13;;;16.90;98.00;;;;;;5039521;28;20585;-73
2021/08/28 10:27:25;;;;;;;1.40;1.23;;;16.80;98.00;;;;;;5039811;28;20473;-73
2021/08/28 10:29:55;;;;;;;1.50;1.40;;;16.80;98.00;;;;;;5039881;28;20453;-73
2021/08/28 10:32:22;;;;;;;1.40;1.30;;;16.70;98.00;;;;;;5039207;28;20515;-74
2021/08/28 10:34:52;;;;;;;1.20;1.00;;;16.70;98.00;;;;;;5039470;28;20749;-73
2021/08/28 10:37:20;;;;;;;1.20;1.00;;;16.50;98.00;;;;;;5031637;28;20492;-73
2021/08/28 10:39:49;;;;;;;1.30;1.20;;;16.20;98.00;;;;;;5043755;28;20503;-74
2021/08/28 10:42:16;;;;;;;1.20;1.07;;;16.20;98.00;;;;;;5047212;28;20981;-74
2021/08/28 10:44:43;;;;;;;1.30;1.17;;;16.00;98.00;;;;;;5047681;28;20550;-75
2021/08/28 10:47:15;;;;;;;1.43;1.13;;;15.80;98.00;;;;;;5038935;28;20463;-74
2021/08/28 10:49:50;;;;;;;1.70;1.20;;;15.70;98.00;;;;;;5031639;28;20886;-75
2021/08/28 10:52:18;;;;;;;1.20;1.10;;;15.50;98.00;;;;;;5038618;28;20465;-75
2021/08/28 10:54:53;;;;;;;1.30;1.20;;;15.40;98.00;;;;;;5031371;28;20489;-73
2021/08/28 10:57:25;;;;;;;1.20;1.10;;;15.60;98.00;;;;;;5045740;28;20481;-74
2021/08/28 11:00:01;;;;;;;1.30;1.10;;;15.70;98.00;;;;;;5039276;28;20468;-74
2021/08/28 11:02:51;;;;;;;1.33;1.20;;;15.90;98.00;;;;;;5032719;28;20460;-73
2021/08/28 11:05:20;;;;;;;1.30;1.20;;;16.00;98.00;;;;;;5046587;28;20450;-73
2021/08/28 11:07:47;;;;;;;1.20;1.00;;;16.20;98.00;;;;;;5046972;28;20882;-75
2021/08/28 11:10:17;;;;;;;1.20;1.20;;;16.20;98.00;;;;;;5037560;28;20470;-74
2021/08/28 11:12:46;;;;;;;1.20;1.03;;;16.50;98.00;;;;;;5031176;28;20454;-74
2021/08/28 11:15:50;;;;;;;1.20;1.00;;;16.90;98.00;;;;;;5030742;28;20551;-74
2021/08/28 11:18:44;;;;;;;1.27;1.10;;;17.40;98.00;;;;;;5030010;28;20461;-76
2021/08/28 11:21:12;;;;;;;1.30;1.20;;;17.70;98.00;;;;;;5038809;28;20533;-74
2021/08/28 11:23:45;;;;;;;1.20;1.10;;;17.80;98.00;;;;;;5042430;28;20976;-73
2021/08/28 11:26:12;;;;;;;1.47;1.20;;;17.70;98.00;;;;;;5033797;28;20454;-74
2021/08/28 11:28:42;;;;;;;1.20;1.10;;;17.70;98.00;;;;;;5033942;28;20465;-74
2021/08/28 11:31:10;;;;;;;1.30;1.10;;;17.80;98.00;;;;;;5038527;28;20486;-74
2021/08/28 11:33:39;;;;;;;1.40;1.30;;;17.90;98.00;;;;;;5040371;28;20454;-74
2021/08/28 11:36:08;;;;;;;1.20;1.17;;;18.00;98.00;;;;;;5030046;28;20548;-73
2021/08/28 11:38:41;;;;;;;1.20;1.00;;;18.20;98.00;;;;;;5043283;28;20508;-71
2021/08/28 11:41:10;;;;;;;1.50;1.47;;;18.20;98.00;;;;;;5046906;28;20952;-71
2021/08/28 11:43:39;;;;;;;1.47;1.20;;;18.20;98.00;;;;;;5031443;28;20458;-71
2021/08/28 11:46:09;;;;;;;1.20;1.10;;;18.20;98.00;;;;;;5030542;28;20462;-73
2021/08/28 11:48:44;;;;;;;1.20;1.10;;;18.40;98.00;;;;;;5029132;28;20489;-72
2021/08/28 11:51:14;;;;;;;1.20;1.10;;;18.80;98.00;;;;;;5026841;28;20458;-73
2021/08/28 11:53:42;;;;;;;2.43;1.30;;;18.80;98.00;;;;;;5039366;28;20498;-74
2021/08/28 11:56:14;;;;;;;1.47;1.30;;;18.70;98.00;;;;;;5038410;28;20529;-75
2021/08/28 11:58:52;;;;;;;1.30;1.30;;;18.60;98.00;;;;;;5044659;28;20462;-74
2021/08/28 12:01:26;;;;;;;7.87;2.67;;;18.30;98.00;;;;;;5028543;28;20458;-76
2021/08/28 12:03:55;;;;;;;1.30;1.13;;;18.20;98.00;;;;;;5037666;28;20457;-75
2021/08/28 12:06:25;;;;;;;1.30;1.20;;;17.90;98.00;;;;;;5038420;28;20537;-75
2021/08/28 12:08:52;;;;;;;1.50;1.37;;;17.80;98.00;;;;;;5029995;28;20469;-74
2021/08/28 12:11:21;;;;;;;1.33;1.20;;;18.00;98.00;;;;;;5037959;28;20915;-74
2021/08/28 12:13:51;;;;;;;1.20;1.20;;;18.20;98.00;;;;;;5013262;28;20553;-73
2021/08/28 12:16:23;;;;;;;1.40;1.30;;;18.40;98.00;;;;;;5030044;28;20584;-76
2021/08/28 12:19:04;;;;;;;3.20;1.43;;;18.50;98.00;;;;;;5038137;28;20555;-73
2021/08/28 12:21:34;;;;;;;1.20;1.10;;;18.60;98.00;;;;;;5037664;28;21299;-74
2021/08/28 12:24:16;;;;;;;1.20;1.10;;;18.40;98.00;;;;;;5029541;28;21257;-74
2021/08/28 12:26:44;;;;;;;1.93;1.20;;;18.50;98.00;;;;;;5034053;28;20527;-74
2021/08/28 12:29:11;;;;;;;1.23;1.17;;;18.70;98.00;;;;;;5038048;28;20512;-74
2021/08/28 12:31:38;;;;;;;1.20;1.10;;;19.10;98.00;;;;;;5045886;28;20541;-73
2021/08/28 12:34:19;;;;;;;1.20;1.10;;;19.10;98.00;;;;;;5033312;28;20497;-72
2021/08/28 12:36:48;;;;;;;1.20;1.13;;;19.20;98.00;;;;;;5029855;28;20494;-73
2021/08/28 12:39:16;;;;;;;1.20;1.07;;;19.40;98.00;;;;;;5033408;28;20520;-74
2021/08/28 12:41:44;;;;;;;1.40;1.30;;;19.50;98.00;;;;;;5033741;28;20874;-74
2021/08/28 12:44:13;;;;;;;1.40;1.27;;;19.70;98.00;;;;;;5047249;28;20496;-73
2021/08/28 12:46:42;;;;;;;1.33;1.30;;;19.90;98.00;;;;;;5035585;28;20458;-73
2021/08/28 12:49:20;;;;;;;1.60;1.17;;;20.30;98.00;;;;;;5035802;28;20545;-72
2021/08/28 12:51:58;;;;;;;1.60;1.20;;;20.80;98.00;;;;;;5041998;28;20516;-74
2021/08/28 12:54:29;;;;;;;2.43;1.50;;;20.70;98.00;;;;;;5042232;28;20554;-74
2021/08/28 12:57:00;;;;;;;1.80;1.53;;;20.60;98.00;;;;;;5041453;28;20502;-75
2021/08/28 12:59:27;;;;;;;1.20;1.00;;;20.40;98.00;;;;;;5049941;28;20492;-73